createdAt,value
2018-12-19T00:01:05.370Z,32.17
2018-12-19T00:03:38.361Z,33.17
2018-12-19T00:06:11.724Z,33.43
2018-12-19T00:08:44.134Z,34.87
2018-12-19T00:11:16.506Z,36.47
2018-12-19T00:13:50.178Z,32.87
2018-12-19T00:16:22.674Z,33.50
2018-12-19T00:18:56.032Z,34.90
2018-12-19T00:21:28.863Z,36.77
2018-12-19T00:24:03.713Z,34.67
2018-12-19T00:26:37.957Z,34.53
2018-12-19T00:29:11.724Z,33.50
2018-12-19T00:31:45.910Z,33.00
2018-12-19T00:34:18.823Z,32.70
2018-12-19T00:36:52.808Z,32.70
2018-12-19T00:39:25.232Z,32.53
2018-12-19T00:41:58.908Z,35.27
2018-12-19T00:44:33.011Z,33.47
2018-12-19T00:47:07.278Z,34.13
2018-12-19T00:49:40.755Z,38.17
2018-12-19T00:52:16.443Z,33.07
2018-12-19T00:54:51.725Z,33.83
2018-12-19T00:57:22.828Z,34.07
2018-12-19T00:59:56.897Z,34.77
2018-12-19T01:02:31.724Z,34.47
2018-12-19T01:05:06.414Z,34.93
2018-12-19T01:07:39.330Z,32.93
2018-12-19T01:10:15.122Z,33.17
2018-12-19T01:12:48.019Z,31.60
2018-12-19T01:15:22.844Z,31.67
2018-12-19T01:17:55.181Z,31.30
2018-12-19T01:20:29.124Z,33.43
2018-12-19T01:23:03.792Z,31.77
2018-12-19T01:25:35.360Z,30.07
2018-12-19T01:28:11.080Z,32.63
2018-12-19T01:30:43.145Z,29.90
2018-12-19T01:33:17.969Z,32.73
2018-12-19T01:35:50.985Z,31.33
2018-12-19T01:38:28.262Z,29.90
2018-12-19T01:41:02.181Z,32.43
2018-12-19T01:43:34.897Z,29.93
2018-12-19T01:46:09.487Z,30.60
2018-12-19T01:48:42.436Z,29.37
2018-12-19T01:51:18.198Z,29.93
2018-12-19T01:53:51.724Z,30.70
2018-12-19T01:56:25.488Z,27.17
2018-12-19T01:58:59.031Z,28.83
2018-12-19T02:01:30.787Z,25.30
2018-12-19T02:04:04.015Z,27.10
2018-12-19T02:06:38.089Z,29.07
2018-12-19T02:09:12.559Z,26.40
2018-12-19T02:11:48.772Z,27.23
2018-12-19T02:14:21.724Z,27.20
2018-12-19T02:16:56.406Z,27.97
2018-12-19T02:19:28.943Z,27.20
2018-12-19T02:22:03.096Z,27.37
2018-12-19T02:24:38.007Z,27.53
2018-12-19T02:27:12.304Z,30.03
2018-12-19T02:29:44.454Z,26.80
2018-12-19T02:32:19.474Z,24.97
2018-12-19T02:34:54.141Z,25.60
2018-12-19T02:37:28.336Z,22.67
2018-12-19T02:40:04.452Z,22.40
2018-12-19T02:42:39.510Z,21.83
2018-12-19T02:45:14.390Z,21.83
2018-12-19T02:47:47.965Z,22.63
2018-12-19T02:50:20.735Z,21.17
2018-12-19T02:52:54.921Z,24.07
2018-12-19T02:55:29.123Z,22.10
2018-12-19T02:58:04.579Z,21.87
2018-12-19T03:00:38.196Z,22.50
2018-12-19T03:03:11.204Z,21.90
2018-12-19T03:05:46.213Z,22.80
2018-12-19T03:08:21.723Z,22.73
2018-12-19T03:10:54.851Z,20.50
2018-12-19T03:13:30.050Z,18.60
2018-12-19T03:16:03.485Z,20.93
2018-12-19T03:18:41.160Z,19.87
2018-12-19T03:21:14.307Z,19.33
2018-12-19T03:23:50.121Z,22.17
2018-12-19T03:26:22.963Z,22.10
2018-12-19T03:28:57.315Z,21.17
2018-12-19T03:31:31.727Z,20.00
2018-12-19T03:34:07.463Z,22.07
2018-12-19T03:36:42.777Z,21.27
2018-12-19T03:39:17.529Z,20.07
2018-12-19T03:41:51.724Z,20.50
2018-12-19T03:44:23.750Z,20.77
2018-12-19T03:46:57.363Z,20.50
2018-12-19T03:49:28.912Z,21.27
2018-12-19T03:52:01.969Z,20.90
2018-12-19T03:54:37.642Z,20.43
2018-12-19T03:57:09.469Z,22.03
2018-12-19T03:59:43.006Z,21.10
2018-12-19T04:02:17.077Z,20.90
2018-12-19T04:04:51.723Z,21.47
2018-12-19T04:07:26.713Z,18.03
2018-12-19T04:10:01.720Z,21.50
2018-12-19T04:12:37.428Z,21.50
2018-12-19T04:15:13.547Z,21.27
2018-12-19T04:17:48.145Z,19.57
2018-12-19T04:20:21.727Z,20.07
2018-12-19T04:22:58.176Z,19.80
2018-12-19T04:25:28.513Z,19.40
2018-12-19T04:28:04.048Z,18.73
2018-12-19T04:30:41.724Z,19.23
2018-12-19T04:33:15.123Z,18.93
2018-12-19T04:35:49.545Z,19.53
2018-12-19T04:38:21.724Z,17.90
2018-12-19T04:40:56.857Z,18.70
2018-12-19T04:43:28.878Z,16.77
2018-12-19T04:45:59.801Z,18.27
2018-12-19T04:48:36.665Z,18.40
2018-12-19T04:51:11.725Z,17.97
2018-12-19T04:53:45.778Z,17.47
2018-12-19T04:56:20.171Z,16.97
2018-12-19T04:58:55.221Z,19.27
2018-12-19T05:01:30.583Z,17.90
2018-12-19T05:04:05.553Z,17.47
2018-12-19T05:06:38.524Z,18.20
2018-12-19T05:09:12.788Z,15.40
2018-12-19T05:11:46.663Z,16.23
2018-12-19T05:14:20.944Z,17.47
2018-12-19T05:16:57.411Z,17.00
2018-12-19T05:19:31.125Z,15.30
2018-12-19T05:22:05.103Z,14.83
2018-12-19T05:24:37.815Z,14.37
2018-12-19T05:27:13.587Z,15.83
2018-12-19T05:29:50.112Z,14.23
2018-12-19T05:32:26.351Z,16.17
2018-12-19T05:35:01.006Z,16.13
2018-12-19T05:37:35.520Z,15.60
2018-12-19T05:40:10.340Z,13.30
2018-12-19T05:45:21.725Z,14.00
2018-12-19T05:47:57.988Z,14.23
2018-12-19T05:50:31.725Z,14.07
2018-12-19T05:53:07.359Z,14.80
2018-12-19T05:55:41.100Z,13.13
2018-12-19T05:58:14.907Z,13.07
2018-12-19T06:00:46.812Z,14.20
2018-12-19T06:03:22.457Z,12.37
2018-12-19T06:05:57.101Z,12.70
2018-12-19T06:08:31.724Z,12.23
2018-12-19T06:11:05.837Z,11.77
2018-12-19T06:13:41.724Z,11.00
2018-12-19T06:16:16.853Z,11.10
2018-12-19T06:18:52.622Z,9.80
2018-12-19T06:21:28.561Z,10.63
2018-12-19T06:24:01.487Z,10.37
2018-12-19T06:26:36.916Z,9.87
2018-12-19T06:29:12.970Z,8.97
2018-12-19T06:31:44.684Z,10.37
2018-12-19T06:34:17.418Z,8.37
2018-12-19T06:36:53.137Z,7.90
2018-12-19T06:39:25.935Z,8.37
2018-12-19T06:41:59.964Z,7.80
2018-12-19T06:44:31.037Z,7.73
2018-12-19T06:46:59.355Z,8.10
2018-12-19T06:49:35.741Z,8.13
2018-12-19T06:52:09.853Z,7.47
2018-12-19T06:54:45.508Z,8.50
2018-12-19T06:57:20.491Z,8.83
2018-12-19T06:59:58.361Z,7.53
2018-12-19T07:02:30.641Z,7.43
2018-12-19T07:05:05.428Z,7.77
2018-12-19T07:07:37.988Z,7.07
2018-12-19T07:10:13.021Z,7.23
2018-12-19T07:12:46.585Z,6.40
2018-12-19T07:15:20.592Z,6.43
2018-12-19T07:17:53.175Z,7.23
2018-12-19T07:20:28.169Z,6.30
2018-12-19T07:23:00.997Z,6.33
2018-12-19T07:25:36.649Z,8.23
2018-12-19T07:28:11.726Z,7.63
2018-12-19T07:30:43.767Z,6.90
2018-12-19T07:33:16.201Z,6.00
2018-12-19T07:35:50.043Z,10.43
2018-12-19T07:38:23.194Z,10.33
2018-12-19T07:40:56.802Z,9.77
2018-12-19T07:43:30.956Z,9.57
2018-12-19T07:46:04.767Z,12.53
2018-12-19T07:48:36.825Z,9.43
2018-12-19T07:51:13.857Z,7.83
2018-12-19T07:53:47.912Z,10.23
2018-12-19T07:56:21.725Z,9.07
2018-12-19T07:58:56.088Z,8.23
2018-12-19T08:01:31.725Z,8.27
2018-12-19T08:04:04.448Z,6.83
2018-12-19T08:06:38.481Z,6.93
2018-12-19T08:09:12.567Z,7.43
2018-12-19T08:11:45.042Z,6.50
2018-12-19T08:14:14.447Z,7.40
2018-12-19T08:16:47.610Z,7.63
2018-12-19T08:19:16.020Z,6.20
2018-12-19T08:21:51.724Z,7.43
2018-12-19T08:24:26.596Z,6.00
2018-12-19T08:26:58.842Z,6.57
2018-12-19T08:29:32.304Z,6.33
2018-12-19T08:32:04.777Z,6.70
2018-12-19T08:34:36.393Z,7.43
2018-12-19T08:37:10.204Z,6.60
2018-12-19T08:39:42.555Z,7.93
2018-12-19T08:42:15.233Z,6.00
2018-12-19T08:44:47.567Z,5.53
2018-12-19T08:47:20.179Z,6.47
2018-12-19T08:49:53.258Z,5.93
2018-12-19T08:52:25.088Z,5.63
2018-12-19T08:54:58.103Z,4.97
2018-12-19T08:57:31.726Z,6.10
2018-12-19T09:00:04.259Z,4.77
2018-12-19T09:02:35.481Z,4.23
2018-12-19T09:05:08.726Z,5.17
2018-12-19T09:07:40.907Z,5.20
2018-12-19T09:10:14.620Z,4.77
2018-12-19T09:12:49.395Z,6.53
2018-12-19T09:15:27.645Z,4.27
2018-12-19T09:17:55.509Z,4.60
2018-12-19T09:20:26.818Z,5.43
2018-12-19T09:23:03.155Z,5.70
2018-12-19T09:25:36.109Z,5.13
2018-12-19T09:28:11.599Z,4.57
2018-12-19T09:30:44.906Z,5.47
2018-12-19T09:33:27.170Z,7.57
2018-12-19T09:35:56.538Z,8.00
2018-12-19T09:38:30.538Z,7.57
2018-12-19T09:41:04.435Z,5.40
2018-12-19T09:43:40.211Z,5.87
2018-12-19T09:46:15.639Z,6.60
2018-12-19T09:48:49.490Z,7.30
2018-12-19T09:51:18.352Z,6.70
2018-12-19T09:53:53.315Z,6.60
2018-12-19T09:56:26.035Z,6.73
2018-12-19T09:58:58.703Z,5.07
2018-12-19T10:01:31.723Z,5.10
2018-12-19T10:04:06.586Z,7.07
2018-12-19T10:06:38.446Z,5.90
2018-12-19T10:09:14.764Z,6.40
2018-12-19T10:11:46.901Z,4.63
2018-12-19T10:14:17.398Z,4.80
2018-12-19T10:16:51.539Z,5.67
2018-12-19T10:19:25.910Z,6.80
2018-12-19T10:21:58.940Z,5.50
2018-12-19T10:24:37.441Z,7.87
2018-12-19T10:27:09.747Z,14.20
2018-12-19T10:29:41.603Z,14.60
2018-12-19T10:32:14.239Z,10.07
2018-12-19T10:34:51.723Z,16.33
2018-12-19T10:37:24.859Z,8.30
2018-12-19T10:40:01.002Z,6.80
2018-12-19T10:42:37.616Z,8.73
2018-12-19T10:45:13.332Z,7.13
2018-12-19T10:47:46.071Z,6.60
2018-12-19T10:50:20.988Z,8.07
2018-12-19T10:52:50.389Z,6.73
2018-12-19T10:58:01.094Z,10.90
2018-12-19T11:00:37.260Z,8.40
2018-12-19T11:03:11.725Z,11.93
2018-12-19T11:05:42.694Z,10.37
2018-12-19T11:08:16.092Z,7.73
2018-12-19T11:10:45.166Z,7.63
2018-12-19T11:13:16.193Z,8.27
2018-12-19T11:15:50.450Z,8.77
2018-12-19T11:18:25.076Z,9.60
2018-12-19T11:20:57.234Z,8.70
2018-12-19T11:23:29.484Z,8.67
2018-12-19T11:26:04.027Z,7.00
2018-12-19T11:28:39.540Z,6.50
2018-12-19T11:31:12.281Z,7.13
2018-12-19T11:33:45.172Z,9.03
2018-12-19T11:36:19.003Z,11.57
2018-12-19T11:38:53.411Z,10.20
2018-12-19T11:41:30.389Z,12.57
2018-12-19T11:44:05.092Z,12.13
2018-12-19T11:46:35.941Z,13.50
2018-12-19T11:49:12.207Z,11.67
2018-12-19T11:51:47.493Z,11.43
2018-12-19T11:54:20.694Z,10.30
2018-12-19T11:56:53.605Z,8.57
2018-12-19T11:59:24.614Z,8.83
2018-12-19T12:01:56.756Z,9.90
2018-12-19T12:04:31.389Z,6.97
2018-12-19T12:07:04.378Z,6.90
2018-12-19T12:09:37.780Z,10.57
2018-12-19T12:12:12.185Z,7.13
2018-12-19T12:14:41.830Z,8.07
2018-12-19T12:17:11.103Z,8.10
2018-12-19T12:19:47.271Z,4.70
2018-12-19T12:22:21.724Z,8.37
2018-12-19T12:24:53.989Z,7.83
2018-12-19T12:27:27.226Z,6.30
2018-12-19T12:29:59.782Z,6.67
2018-12-19T12:32:34.851Z,7.17
2018-12-19T12:35:08.444Z,6.43
2018-12-19T12:37:39.584Z,7.30
2018-12-19T12:40:12.389Z,6.73
2018-12-19T12:42:46.192Z,6.57
2018-12-19T12:45:18.569Z,5.67
2018-12-19T12:47:53.474Z,5.97
2018-12-19T12:50:26.451Z,8.17
2018-12-19T12:53:00.882Z,5.67
2018-12-19T12:55:32.870Z,5.23
2018-12-19T12:58:06.713Z,7.83
2018-12-19T13:00:41.724Z,6.30
2018-12-19T13:03:23.253Z,5.63
2018-12-19T13:05:57.702Z,7.87
2018-12-19T13:08:31.301Z,8.93
2018-12-19T13:11:05.075Z,7.87
2018-12-19T13:13:38.122Z,8.83
2018-12-19T13:16:10.655Z,7.40
2018-12-19T13:18:47.855Z,6.33
2018-12-19T13:21:22.475Z,6.77
2018-12-19T13:23:58.447Z,6.67
2018-12-19T13:26:31.847Z,11.47
2018-12-19T13:29:05.010Z,7.93
2018-12-19T13:31:37.578Z,7.43
2018-12-19T13:34:11.641Z,6.43
2018-12-19T13:36:40.892Z,6.93
2018-12-19T13:39:14.747Z,8.30
2018-12-19T13:41:45.967Z,10.47
2018-12-19T13:44:16.568Z,8.57
2018-12-19T13:46:49.782Z,8.57
2018-12-19T13:49:19.991Z,9.30
2018-12-19T13:51:53.375Z,10.10
2018-12-19T13:54:21.724Z,11.30
2018-12-19T13:56:56.437Z,12.77
2018-12-19T13:59:30.673Z,13.20
2018-12-19T14:02:04.270Z,11.53
2018-12-19T14:04:37.188Z,11.93
2018-12-19T14:07:07.866Z,13.80
2018-12-19T14:09:36.661Z,12.77
2018-12-19T14:12:12.394Z,11.60
2018-12-19T14:14:47.338Z,13.53
2018-12-19T14:17:19.376Z,13.50
2018-12-19T14:19:52.355Z,14.13
2018-12-19T14:22:24.995Z,11.97
2018-12-19T14:24:58.365Z,11.77
2018-12-19T14:27:31.825Z,13.13
2018-12-19T14:30:06.365Z,12.87
2018-12-19T14:32:40.388Z,13.23
2018-12-19T14:35:11.443Z,14.60
2018-12-19T14:37:44.848Z,11.77
2018-12-19T14:40:12.883Z,11.30
2018-12-19T14:42:47.399Z,10.40
2018-12-19T14:45:19.880Z,11.17
2018-12-19T14:47:52.304Z,10.53
2018-12-19T14:50:26.479Z,9.93
2018-12-19T14:52:58.759Z,11.03
2018-12-19T14:55:31.317Z,10.27
2018-12-19T14:58:02.930Z,9.37
2018-12-19T15:00:36.028Z,12.87
2018-12-19T15:03:08.606Z,9.87
2018-12-19T15:05:38.519Z,12.03
2018-12-19T15:08:09.372Z,10.77
2018-12-19T15:10:43.054Z,15.10
2018-12-19T15:13:15.278Z,14.47
2018-12-19T15:15:47.611Z,15.20
2018-12-19T15:18:22.057Z,9.83
2018-12-19T15:20:52.185Z,11.93
2018-12-19T15:23:26.342Z,12.10
2018-12-19T15:25:57.042Z,13.90
2018-12-19T15:28:30.533Z,11.37
2018-12-19T15:31:02.437Z,11.13
2018-12-19T15:33:30.043Z,11.17
2018-12-19T15:35:57.594Z,13.20
2018-12-19T15:38:26.273Z,11.80
2018-12-19T15:40:57.963Z,13.17
2018-12-19T15:43:25.511Z,12.47
2018-12-19T15:45:57.080Z,11.73
2018-12-19T15:48:32.631Z,12.33
2018-12-19T15:51:01.455Z,13.57
2018-12-19T15:53:34.690Z,13.20
2018-12-19T15:56:02.255Z,14.03
2018-12-19T15:58:29.852Z,13.63
2018-12-19T16:01:00.139Z,13.47
2018-12-19T16:03:33.415Z,25.47
2018-12-19T16:06:03.036Z,20.13
2018-12-19T16:08:36.020Z,13.47
2018-12-19T16:11:08.612Z,12.93
2018-12-19T16:13:42.511Z,14.63
2018-12-19T16:16:15.794Z,14.90
2018-12-19T16:18:50.338Z,14.10
2018-12-19T16:21:23.956Z,15.93
2018-12-19T16:23:59.655Z,17.47
2018-12-19T16:26:33.028Z,14.00
2018-12-19T16:29:05.802Z,16.80
2018-12-19T16:31:38.260Z,19.83
2018-12-19T16:34:11.335Z,17.20
2018-12-19T16:36:43.987Z,15.37
2018-12-19T16:39:18.668Z,15.03
2018-12-19T16:41:51.691Z,15.63
2018-12-19T16:44:19.712Z,14.77
2018-12-19T16:46:47.790Z,16.20
2018-12-19T16:49:16.668Z,14.40
2018-12-19T16:51:50.113Z,16.00
2018-12-19T16:54:18.869Z,14.90
2018-12-19T16:56:48.000Z,16.00
2018-12-19T16:59:18.490Z,16.33
2018-12-19T17:01:53.011Z,18.37
2018-12-19T17:04:27.099Z,12.30
2018-12-19T17:06:57.359Z,13.33
2018-12-19T17:09:31.720Z,13.47
2018-12-19T17:12:03.563Z,12.47
2018-12-19T17:14:35.243Z,13.47
2018-12-19T17:17:07.466Z,10.53
2018-12-19T17:19:40.741Z,13.40
2018-12-19T17:22:13.417Z,12.97
2018-12-19T17:24:46.748Z,18.07
2018-12-19T17:27:17.177Z,17.37
2018-12-19T17:29:45.501Z,14.57
2018-12-19T17:32:13.322Z,14.07
2018-12-19T17:34:41.017Z,12.63
2018-12-19T17:37:11.512Z,14.97
2018-12-19T17:39:47.946Z,9.10
2018-12-19T17:42:24.301Z,12.80
2018-12-19T17:45:02.786Z,9.27
2018-12-19T17:47:36.509Z,7.33
2018-12-19T17:50:08.784Z,8.13
2018-12-19T17:52:45.203Z,9.03
2018-12-19T17:55:15.642Z,9.53
2018-12-19T17:57:46.536Z,10.37
2018-12-19T18:00:17.114Z,12.17
2018-12-19T18:02:48.002Z,10.37
2018-12-19T18:05:16.140Z,10.80
2018-12-19T18:07:44.151Z,12.00
2018-12-19T18:10:12.224Z,14.60
2018-12-19T18:12:41.394Z,14.73
2018-12-19T18:15:15.767Z,22.33
2018-12-19T18:17:47.024Z,18.97
2018-12-19T18:20:18.696Z,15.17
2018-12-19T18:22:51.575Z,13.33
2018-12-19T18:25:24.232Z,13.33
2018-12-19T18:27:57.924Z,18.57
2018-12-19T18:30:33.176Z,12.53
2018-12-19T18:33:07.091Z,9.80
2018-12-19T18:35:38.050Z,10.53
2018-12-19T18:38:11.724Z,13.30
2018-12-19T18:40:44.979Z,15.60
2018-12-19T18:43:17.651Z,12.97
2018-12-19T18:45:54.115Z,10.30
2018-12-19T18:48:25.912Z,12.67
2018-12-19T18:50:58.803Z,11.93
2018-12-19T18:53:34.248Z,12.27
2018-12-19T18:56:07.047Z,11.70
2018-12-19T18:58:40.582Z,11.73
2018-12-19T19:01:12.551Z,10.20
2018-12-19T19:03:46.211Z,10.20
2018-12-19T19:06:17.548Z,9.63
2018-12-19T19:08:49.986Z,12.90
2018-12-19T19:11:22.264Z,11.50
2018-12-19T19:13:55.253Z,11.57
2018-12-19T19:16:26.634Z,12.70
2018-12-19T19:18:58.669Z,12.07
2018-12-19T19:21:31.004Z,10.87
2018-12-19T19:24:02.950Z,11.73
2018-12-19T19:26:35.288Z,11.67
2018-12-19T19:29:09.131Z,12.90
2018-12-19T19:31:42.004Z,12.03
2018-12-19T19:34:14.119Z,12.53
2018-12-19T19:36:46.909Z,10.73
2018-12-19T19:39:16.564Z,14.87
2018-12-19T19:41:51.221Z,11.20
2018-12-19T19:44:19.135Z,10.43
2018-12-19T19:46:54.437Z,10.90
2018-12-19T19:49:26.923Z,11.43
2018-12-19T19:52:01.207Z,10.27
2018-12-19T19:54:32.541Z,11.03
2018-12-19T19:57:00.380Z,12.07
2018-12-19T19:59:31.343Z,10.47
2018-12-19T20:02:05.677Z,8.93
2018-12-19T20:04:41.681Z,11.07
2018-12-19T20:07:16.216Z,8.67
2018-12-19T20:09:50.585Z,9.30
2018-12-19T20:12:24.319Z,11.13
2018-12-19T20:14:56.369Z,9.10
2018-12-19T20:17:32.238Z,10.97
2018-12-19T20:20:07.233Z,9.07
2018-12-19T20:22:41.003Z,9.10
2018-12-19T20:25:14.674Z,8.40
2018-12-19T20:27:46.833Z,12.57
2018-12-19T20:30:16.444Z,9.33
2018-12-19T20:32:50.976Z,9.47
2018-12-19T20:35:22.235Z,9.17
2018-12-19T20:37:58.280Z,9.33
2018-12-19T20:40:31.463Z,11.10
2018-12-19T20:43:06.556Z,11.17
2018-12-19T20:45:38.216Z,11.80
2018-12-19T20:48:14.829Z,11.87
2018-12-19T20:50:48.527Z,14.03
2018-12-19T20:53:22.466Z,12.40
2018-12-19T20:55:55.538Z,13.73
2018-12-19T20:58:31.724Z,18.00
2018-12-19T21:01:08.142Z,13.93
2018-12-19T21:03:45.260Z,16.23
2018-12-19T21:06:20.265Z,16.43
2018-12-19T21:08:58.668Z,15.50
2018-12-19T21:11:27.807Z,14.27
2018-12-19T21:14:02.914Z,17.57
2018-12-19T21:16:43.342Z,19.77
2018-12-19T21:19:17.873Z,19.83
2018-12-19T21:21:49.261Z,17.97
2018-12-19T21:24:24.681Z,21.73
2018-12-19T21:26:57.721Z,20.57
2018-12-19T21:29:31.723Z,20.23
2018-12-19T21:32:02.207Z,18.67
2018-12-19T21:34:38.157Z,21.13
2018-12-19T21:37:13.636Z,20.73
2018-12-19T21:39:47.503Z,19.13
2018-12-19T21:42:18.132Z,20.10
2018-12-19T21:44:52.174Z,19.87
2018-12-19T21:47:26.574Z,23.00
2018-12-19T21:49:57.667Z,18.73
2018-12-19T21:52:31.928Z,20.90
2018-12-19T21:55:03.987Z,22.73
2018-12-19T21:57:36.423Z,20.93
2018-12-19T22:00:13.249Z,23.00
2018-12-19T22:02:46.144Z,19.57
2018-12-19T22:05:16.950Z,22.47
2018-12-19T22:07:51.723Z,21.40
2018-12-19T22:10:26.526Z,22.27
2018-12-19T22:13:02.676Z,21.10
2018-12-19T22:15:36.245Z,20.70
2018-12-19T22:18:11.176Z,22.37
2018-12-19T22:20:40.929Z,18.80
2018-12-19T22:23:16.610Z,20.60
2018-12-19T22:25:51.742Z,22.37
2018-12-19T22:28:24.037Z,22.63
2018-12-19T22:30:52.300Z,23.13
2018-12-19T22:33:28.663Z,21.07
2018-12-19T22:36:04.155Z,21.07
2018-12-19T22:38:41.721Z,22.03
2018-12-19T22:41:18.028Z,22.17
2018-12-19T22:43:52.572Z,23.33
2018-12-19T22:46:26.284Z,22.87
2018-12-19T22:49:00.280Z,21.50
2018-12-19T22:54:09.099Z,19.63
2018-12-19T22:56:42.521Z,19.93
2018-12-19T22:59:17.892Z,18.40
2018-12-19T23:01:58.284Z,21.57
2018-12-19T23:04:32.422Z,19.67
2018-12-19T23:07:08.259Z,25.70
2018-12-19T23:09:41.806Z,19.57
2018-12-19T23:12:17.147Z,19.73
2018-12-19T23:14:52.920Z,19.20
2018-12-19T23:17:34.444Z,19.07
2018-12-19T23:20:09.742Z,18.13
2018-12-19T23:22:45.623Z,20.40
2018-12-19T23:25:20.403Z,19.90
2018-12-19T23:27:56.097Z,17.53
2018-12-19T23:30:31.109Z,20.97
2018-12-19T23:33:07.072Z,19.53
2018-12-19T23:35:40.172Z,20.13
2018-12-19T23:38:15.553Z,16.77
2018-12-19T23:40:50.903Z,20.07
2018-12-19T23:43:24.185Z,17.40
2018-12-19T23:45:56.626Z,17.43
2018-12-19T23:48:31.720Z,17.07
2018-12-19T23:51:04.204Z,15.87
2018-12-19T23:53:37.257Z,14.73
2018-12-19T23:56:13.520Z,16.13
2018-12-19T23:58:48.018Z,17.17
